createdAt,value
2023-04-23T00:00:21.762Z,5.95
2023-04-23T00:03:27.778Z,5.85
2023-04-23T00:06:34.598Z,5.81
2023-04-23T00:09:41.625Z,5.70
2023-04-23T00:12:46.762Z,5.66
2023-04-23T00:15:52.961Z,5.55
2023-04-23T00:18:59.696Z,5.53
2023-04-23T00:22:05.438Z,5.59
2023-04-23T00:25:10.002Z,5.59
2023-04-23T00:28:16.100Z,5.55
2023-04-23T00:31:22.190Z,5.54
2023-04-23T00:34:27.914Z,5.53
2023-04-23T00:37:33.668Z,5.53
2023-04-23T00:40:39.452Z,5.55
2023-04-23T00:43:47.067Z,5.57
2023-04-23T00:46:52.857Z,5.53
2023-04-23T00:49:59.216Z,5.51
2023-04-23T00:53:05.261Z,5.35
2023-04-23T00:56:10.461Z,5.30
2023-04-23T00:59:15.606Z,5.22
2023-04-23T01:02:23.114Z,5.23
2023-04-23T01:05:28.232Z,5.24
2023-04-23T01:08:34.139Z,5.21
2023-04-23T01:11:39.726Z,5.21
2023-04-23T01:14:45.053Z,5.24
2023-04-23T01:17:51.284Z,5.24
2023-04-23T01:20:58.271Z,5.34
2023-04-23T01:24:03.842Z,5.35
2023-04-23T01:27:09.163Z,5.42
2023-04-23T01:30:13.980Z,5.43
2023-04-23T01:33:20.107Z,5.44
2023-04-23T01:36:25.652Z,5.43
2023-04-23T01:39:31.577Z,5.51
2023-04-23T01:42:37.179Z,5.50
2023-04-23T01:45:43.118Z,5.53
2023-04-23T01:48:42.104Z,5.48
2023-04-23T01:51:47.609Z,5.44
2023-04-23T01:54:53.301Z,5.43
2023-04-23T01:58:00.764Z,5.42
2023-04-23T02:01:07.445Z,5.40
2023-04-23T02:04:13.006Z,5.36
2023-04-23T02:07:19.897Z,5.33
2023-04-23T02:10:25.779Z,5.29
2023-04-23T02:13:31.619Z,5.26
2023-04-23T02:16:38.305Z,5.21
2023-04-23T02:19:37.339Z,5.19
2023-04-23T02:22:43.193Z,5.20
2023-04-23T02:25:49.715Z,5.19
2023-04-23T02:28:56.113Z,5.19
2023-04-23T02:31:54.393Z,5.19
2023-04-23T02:35:00.709Z,5.22
2023-04-23T02:38:07.774Z,5.23
2023-04-23T02:41:13.345Z,5.20
2023-04-23T02:44:13.479Z,5.27
2023-04-23T02:47:00.494Z,5.25
2023-04-23T02:49:53.076Z,5.25
2023-04-23T02:52:39.178Z,5.25
2023-04-23T02:55:32.628Z,5.24
2023-04-23T02:58:24.914Z,5.21
2023-04-23T03:01:31.596Z,5.27
2023-04-23T03:04:38.968Z,5.31
2023-04-23T03:07:45.274Z,5.31
2023-04-23T03:10:51.692Z,5.45
2023-04-23T03:13:57.418Z,5.51
2023-04-23T03:17:02.965Z,5.64
2023-04-23T03:20:08.200Z,5.70
2023-04-23T03:23:14.237Z,5.82
2023-04-23T03:26:19.940Z,5.90
2023-04-23T03:29:25.248Z,6.03
2023-04-23T03:32:31.838Z,6.10
2023-04-23T03:35:38.605Z,6.23
2023-04-23T03:38:47.488Z,6.39
2023-04-23T03:41:54.405Z,6.46
2023-04-23T03:45:01.406Z,6.66
2023-04-23T03:48:07.413Z,6.77
2023-04-23T03:51:14.395Z,6.95
2023-04-23T03:54:20.494Z,7.13
2023-04-23T03:57:32.608Z,7.30
2023-04-23T04:00:57.518Z,7.56
2023-04-23T04:03:55.882Z,7.82
2023-04-23T04:07:03.518Z,8.00
2023-04-23T04:10:10.109Z,8.23
2023-04-23T04:13:15.935Z,8.44
2023-04-23T04:16:21.769Z,8.63
2023-04-23T04:19:27.113Z,8.88
2023-04-23T04:22:32.760Z,9.12
2023-04-23T04:25:38.732Z,9.37
2023-04-23T04:28:44.920Z,9.62
2023-04-23T04:31:51.081Z,9.82
2023-04-23T04:34:57.242Z,10.05
2023-04-23T04:38:02.829Z,10.22
2023-04-23T04:41:10.352Z,10.41
2023-04-23T04:44:16.058Z,10.60
2023-04-23T04:47:22.847Z,10.81
2023-04-23T04:50:29.676Z,11.02
2023-04-23T04:53:35.388Z,11.15
2023-04-23T04:56:41.206Z,11.28
2023-04-23T04:59:46.933Z,11.42
2023-04-23T05:02:53.202Z,11.62
2023-04-23T05:06:01.727Z,11.76
2023-04-23T05:09:07.212Z,11.86
2023-04-23T05:12:14.383Z,12.09
2023-04-23T05:15:22.436Z,12.19
2023-04-23T05:18:28.763Z,12.29
2023-04-23T05:21:34.976Z,12.43
2023-04-23T05:24:41.509Z,12.54
2023-04-23T05:27:46.652Z,12.68
2023-04-23T05:30:52.267Z,12.86
2023-04-23T05:33:58.800Z,13.01
2023-04-23T05:37:05.085Z,13.18
2023-04-23T05:40:10.970Z,13.29
2023-04-23T05:43:16.136Z,13.40
2023-04-23T05:46:22.202Z,13.45
2023-04-23T05:49:27.773Z,13.54
2023-04-23T05:52:36.820Z,13.69
2023-04-23T05:55:36.688Z,13.80
2023-04-23T05:58:42.984Z,13.96
2023-04-23T06:01:48.345Z,14.03
2023-04-23T06:04:47.695Z,14.14
2023-04-23T06:07:53.578Z,14.19
2023-04-23T06:11:00.527Z,14.31
2023-04-23T06:14:06.096Z,14.38
2023-04-23T06:17:10.589Z,14.47
2023-04-23T06:20:18.039Z,14.61
2023-04-23T06:23:23.982Z,14.73
2023-04-23T06:26:30.717Z,14.97
2023-04-23T06:29:38.672Z,15.14
2023-04-23T06:32:45.723Z,15.48
2023-04-23T06:35:50.998Z,15.78
2023-04-23T06:38:56.950Z,15.94
2023-04-23T06:42:01.971Z,15.95
2023-04-23T06:45:11.805Z,15.85
2023-04-23T06:48:17.443Z,15.69
2023-04-23T06:51:23.742Z,15.69
2023-04-23T06:54:29.839Z,15.72
2023-04-23T06:57:34.548Z,15.81
2023-04-23T07:00:39.212Z,15.87
2023-04-23T07:03:45.242Z,16.08
2023-04-23T07:06:50.514Z,16.31
2023-04-23T07:09:56.745Z,16.51
2023-04-23T07:13:02.356Z,16.67
2023-04-23T07:16:07.538Z,16.78
2023-04-23T07:19:12.724Z,16.91
2023-04-23T07:22:18.005Z,16.85
2023-04-23T07:25:23.373Z,16.72
2023-04-23T07:28:29.131Z,16.52
2023-04-23T07:31:35.599Z,16.43
2023-04-23T07:34:44.401Z,16.32
2023-04-23T07:37:50.909Z,16.25
2023-04-23T07:40:49.750Z,15.98
2023-04-23T07:43:55.778Z,15.88
2023-04-23T07:47:02.483Z,15.81
2023-04-23T07:50:07.793Z,15.72
2023-04-23T07:53:13.694Z,15.71
2023-04-23T07:56:19.124Z,15.61
2023-04-23T07:59:25.412Z,15.49
2023-04-23T08:02:32.488Z,15.50
2023-04-23T08:05:34.076Z,15.45
2023-04-23T08:08:21.446Z,15.40
2023-04-23T08:11:16.775Z,15.39
2023-04-23T08:14:09.285Z,15.38
2023-04-23T08:17:14.361Z,15.42
2023-04-23T08:20:20.705Z,15.52
2023-04-23T08:23:26.119Z,15.51
2023-04-23T08:26:31.849Z,15.49
2023-04-23T08:29:37.302Z,15.55
2023-04-23T08:32:43.877Z,15.59
2023-04-23T08:35:49.335Z,15.59
2023-04-23T08:38:55.318Z,15.66
2023-04-23T08:42:01.794Z,15.69
2023-04-23T08:45:07.249Z,15.78
2023-04-23T08:48:14.584Z,15.78
2023-04-23T08:51:19.885Z,15.77
2023-04-23T08:54:25.419Z,15.80
2023-04-23T08:57:31.794Z,15.90
2023-04-23T09:00:37.736Z,16.06
2023-04-23T09:03:43.312Z,16.23
2023-04-23T09:06:50.857Z,16.36
2023-04-23T09:09:56.035Z,16.49
2023-04-23T09:13:02.453Z,16.63
2023-04-23T09:16:07.981Z,16.64
2023-04-23T09:19:14.220Z,16.75
2023-04-23T09:22:19.382Z,16.85
2023-04-23T09:25:24.862Z,16.85
2023-04-23T09:28:30.081Z,16.75
2023-04-23T09:31:36.407Z,16.64
2023-04-23T09:34:41.505Z,16.51
2023-04-23T09:37:41.786Z,16.47
2023-04-23T09:40:46.690Z,16.38
2023-04-23T09:43:52.581Z,16.44
2023-04-23T09:46:59.286Z,16.37
2023-04-23T09:50:04.693Z,16.25
2023-04-23T09:53:10.665Z,16.24
2023-04-23T09:56:16.357Z,16.21
2023-04-23T09:59:47.052Z,16.35
2023-04-23T10:02:44.620Z,16.36
2023-04-23T10:06:01.073Z,16.43
2023-04-23T10:09:03.528Z,16.41
2023-04-23T10:12:27.790Z,16.46
2023-04-23T10:15:23.506Z,16.43
2023-04-23T10:18:33.186Z,16.40
2023-04-23T10:21:52.224Z,16.45
2023-04-23T10:24:49.813Z,16.50
2023-04-23T10:27:58.151Z,16.71
2023-04-23T10:31:03.604Z,16.81
2023-04-23T10:34:10.912Z,16.92
2023-04-23T10:37:16.566Z,16.95
2023-04-23T10:40:28.243Z,16.81
2023-04-23T10:43:34.250Z,16.84
2023-04-23T10:46:49.586Z,16.96
2023-04-23T10:49:55.700Z,17.04
2023-04-23T10:52:57.378Z,16.93
2023-04-23T10:56:03.236Z,16.95
2023-04-23T10:59:08.141Z,16.98
2023-04-23T11:02:15.881Z,17.04
2023-04-23T11:05:23.730Z,16.99
2023-04-23T11:08:29.528Z,17.06
2023-04-23T11:11:35.815Z,17.10
2023-04-23T11:15:03.690Z,17.05
2023-04-23T11:18:12.812Z,17.07
2023-04-23T11:21:20.749Z,17.05
2023-04-23T11:24:26.406Z,17.08
2023-04-23T11:27:32.373Z,17.22
2023-04-23T11:30:44.922Z,17.40
2023-04-23T11:33:51.503Z,17.50
2023-04-23T11:36:56.766Z,17.66
2023-04-23T11:40:03.587Z,17.67
2023-04-23T11:43:11.511Z,17.63
2023-04-23T11:46:16.907Z,17.50
2023-04-23T11:49:22.428Z,17.43
2023-04-23T11:52:28.709Z,17.23
2023-04-23T11:55:33.931Z,17.16
2023-04-23T11:58:39.381Z,17.07
2023-04-23T12:02:00.972Z,16.95
2023-04-23T12:05:06.626Z,16.89
2023-04-23T12:08:25.126Z,16.95
2023-04-23T12:11:31.108Z,17.09
2023-04-23T12:14:42.330Z,17.25
2023-04-23T12:17:48.328Z,17.35
2023-04-23T12:20:54.527Z,17.44
2023-04-23T12:23:59.496Z,17.47
2023-04-23T12:27:09.256Z,17.45
2023-04-23T12:30:18.174Z,17.35
2023-04-23T12:33:25.512Z,17.27
2023-04-23T12:36:31.176Z,17.20
2023-04-23T12:39:47.947Z,17.19
2023-04-23T12:42:53.215Z,17.22
2023-04-23T12:45:59.612Z,17.19
2023-04-23T12:49:05.088Z,17.22
2023-04-23T12:52:13.565Z,17.28
2023-04-23T12:55:18.790Z,17.29
2023-04-23T12:58:24.502Z,17.36
2023-04-23T13:01:30.104Z,17.46
2023-04-23T13:04:35.773Z,17.58
2023-04-23T13:07:41.896Z,17.63
2023-04-23T13:10:47.577Z,17.02
2023-04-23T13:13:53.387Z,16.41
2023-04-23T13:16:59.573Z,15.93
2023-04-23T13:20:05.768Z,15.59
2023-04-23T13:23:11.450Z,15.36
2023-04-23T13:26:18.823Z,15.20
2023-04-23T13:29:24.392Z,15.05
2023-04-23T13:32:35.942Z,14.92
2023-04-23T13:35:43.968Z,14.84
2023-04-23T13:38:50.684Z,14.81
2023-04-23T13:42:08.818Z,14.81
2023-04-23T13:45:04.931Z,14.85
2023-04-23T13:48:12.304Z,14.86
2023-04-23T13:51:33.258Z,14.80
2023-04-23T13:54:24.524Z,14.70
2023-04-23T13:57:30.472Z,14.50
2023-04-23T14:00:36.898Z,14.31
2023-04-23T14:03:42.107Z,14.13
2023-04-23T14:06:47.924Z,13.90
2023-04-23T14:09:54.303Z,13.71
2023-04-23T14:12:59.930Z,13.55
2023-04-23T14:16:04.672Z,13.43
2023-04-23T14:19:10.547Z,13.32
2023-04-23T14:22:16.510Z,13.20
2023-04-23T14:25:23.364Z,13.09
2023-04-23T14:28:54.587Z,13.03
2023-04-23T14:32:00.421Z,12.93
2023-04-23T14:35:06.220Z,12.90
2023-04-23T14:38:11.063Z,12.89
2023-04-23T14:41:17.088Z,12.70
2023-04-23T14:44:22.298Z,12.65
2023-04-23T14:47:27.322Z,12.67
2023-04-23T14:50:32.603Z,12.69
2023-04-23T14:53:39.516Z,12.62
2023-04-23T14:56:38.296Z,12.62
2023-04-23T14:59:44.554Z,12.70
2023-04-23T15:02:51.853Z,12.72
2023-04-23T15:05:59.778Z,12.70
2023-04-23T15:09:06.477Z,12.67
2023-04-23T15:12:13.340Z,12.73
2023-04-23T15:15:25.491Z,12.77
2023-04-23T15:18:28.500Z,12.79
2023-04-23T15:21:34.219Z,12.80
2023-04-23T15:24:39.618Z,12.83
2023-04-23T15:27:45.840Z,12.88
2023-04-23T15:30:54.995Z,12.95
2023-04-23T15:34:01.148Z,12.95
2023-04-23T15:37:06.744Z,13.01
2023-04-23T15:40:14.587Z,13.01
2023-04-23T15:43:20.573Z,12.97
2023-04-23T15:46:26.690Z,12.95
2023-04-23T15:49:32.416Z,12.97
2023-04-23T15:52:38.585Z,12.90
2023-04-23T15:55:46.202Z,12.88
2023-04-23T15:58:52.709Z,12.82
2023-04-23T16:01:59.453Z,12.76
2023-04-23T16:05:05.648Z,12.62
2023-04-23T16:08:11.468Z,12.53
2023-04-23T16:11:20.156Z,12.49
2023-04-23T16:14:25.445Z,12.39
2023-04-23T16:17:33.883Z,12.27
2023-04-23T16:20:40.558Z,12.20
2023-04-23T16:23:46.292Z,12.08
2023-04-23T16:26:57.962Z,12.05
2023-04-23T16:29:58.702Z,11.86
2023-04-23T16:33:04.248Z,11.82
2023-04-23T16:36:09.429Z,11.69
2023-04-23T16:39:14.927Z,11.62
2023-04-23T16:42:23.148Z,11.54
2023-04-23T16:45:29.360Z,11.49
2023-04-23T16:48:29.226Z,11.38
2023-04-23T16:51:36.217Z,11.18
2023-04-23T16:54:43.278Z,11.19
2023-04-23T16:57:51.739Z,11.12
2023-04-23T17:00:56.671Z,11.03
2023-04-23T17:04:03.120Z,10.96
2023-04-23T17:07:10.390Z,10.91
2023-04-23T17:10:16.886Z,10.73
2023-04-23T17:13:17.166Z,10.65
2023-04-23T17:16:10.781Z,10.61
2023-04-23T17:19:10.161Z,10.61
2023-04-23T17:22:17.944Z,10.55
2023-04-23T17:25:24.413Z,10.64
2023-04-23T17:28:30.509Z,10.61
2023-04-23T17:31:37.718Z,10.57
2023-04-23T17:34:43.467Z,10.54
2023-04-23T17:37:49.392Z,10.46
2023-04-23T17:40:54.952Z,10.52
2023-04-23T17:44:01.678Z,10.43
2023-04-23T17:47:06.446Z,10.33
2023-04-23T17:50:13.370Z,10.30
2023-04-23T17:53:19.376Z,10.21
2023-04-23T17:56:24.467Z,10.20
2023-04-23T17:59:30.070Z,10.14
2023-04-23T18:02:29.340Z,10.16
2023-04-23T18:05:36.834Z,10.13
2023-04-23T18:08:44.330Z,10.16
2023-04-23T18:11:49.492Z,10.06
2023-04-23T18:14:55.719Z,9.99
2023-04-23T18:18:03.702Z,9.90
2023-04-23T18:21:09.096Z,9.84
2023-04-23T18:24:16.312Z,9.82
2023-04-23T18:27:22.787Z,9.83
2023-04-23T18:30:30.159Z,9.82
2023-04-23T18:33:42.104Z,9.85
2023-04-23T18:36:51.117Z,9.82
2023-04-23T18:39:56.414Z,9.87
2023-04-23T18:43:01.697Z,9.83
2023-04-23T18:46:08.403Z,9.73
2023-04-23T18:49:55.614Z,9.65
2023-04-23T18:53:02.616Z,9.57
2023-04-23T18:56:10.203Z,9.55
2023-04-23T18:59:15.749Z,9.59
2023-04-23T19:02:34.521Z,9.55
2023-04-23T19:05:27.469Z,9.59
2023-04-23T19:08:34.824Z,9.55
2023-04-23T19:11:44.990Z,9.48
2023-04-23T19:14:50.486Z,9.40
2023-04-23T19:17:56.557Z,9.36
2023-04-23T19:21:03.030Z,9.40
2023-04-23T19:24:08.903Z,9.38
2023-04-23T19:27:14.352Z,9.29
2023-04-23T19:30:23.015Z,9.39
2023-04-23T19:33:28.445Z,9.37
2023-04-23T19:36:33.919Z,9.32
2023-04-23T19:39:40.356Z,9.21
2023-04-23T19:42:46.518Z,9.12
2023-04-23T19:45:53.321Z,9.01
2023-04-23T19:48:58.961Z,8.94
2023-04-23T19:52:06.457Z,8.84
2023-04-23T19:55:11.812Z,8.83
2023-04-23T19:58:16.669Z,8.81
2023-04-23T20:01:22.735Z,8.76
2023-04-23T20:04:29.269Z,8.77
2023-04-23T20:07:35.412Z,8.74
2023-04-23T20:10:40.639Z,8.71
2023-04-23T20:13:46.049Z,8.69
2023-04-23T20:16:53.732Z,8.62
2023-04-23T20:20:00.969Z,8.60
2023-04-23T20:23:07.566Z,8.61
2023-04-23T20:26:14.786Z,8.61
2023-04-23T20:29:20.450Z,8.61
2023-04-23T20:32:25.758Z,8.52
2023-04-23T20:35:30.915Z,8.54
2023-04-23T20:38:37.431Z,8.51
2023-04-23T20:41:45.060Z,8.53
2023-04-23T20:44:52.370Z,8.53
2023-04-23T20:47:58.385Z,8.48
2023-04-23T20:51:03.970Z,8.55
2023-04-23T20:54:09.557Z,8.54
2023-04-23T20:57:15.908Z,8.53
2023-04-23T21:00:22.208Z,8.54
2023-04-23T21:03:27.502Z,8.50
2023-04-23T21:06:34.579Z,8.40
2023-04-23T21:09:41.428Z,8.39
2023-04-23T21:12:49.417Z,8.31
2023-04-23T21:15:55.245Z,8.29
2023-04-23T21:19:01.144Z,8.28
2023-04-23T21:22:06.123Z,8.25
2023-04-23T21:25:12.078Z,8.14
2023-04-23T21:28:17.969Z,8.09
2023-04-23T21:31:28.755Z,8.15
2023-04-23T21:34:34.190Z,8.39
2023-04-23T21:37:40.314Z,8.37
2023-04-23T21:40:48.069Z,8.45
2023-04-23T21:43:53.992Z,8.34
2023-04-23T21:47:00.257Z,8.22
2023-04-23T21:50:07.704Z,8.20
2023-04-23T21:53:13.808Z,8.19
2023-04-23T21:56:19.393Z,8.10
2023-04-23T21:59:26.436Z,8.06
2023-04-23T22:02:32.293Z,8.06
2023-04-23T22:05:37.916Z,8.03
2023-04-23T22:08:46.576Z,8.00
2023-04-23T22:12:01.908Z,7.94
2023-04-23T22:15:00.960Z,7.93
2023-04-23T22:18:07.562Z,7.93
2023-04-23T22:21:13.717Z,7.95
2023-04-23T22:24:18.978Z,7.91
2023-04-23T22:27:24.638Z,7.84
2023-04-23T22:30:30.280Z,7.81
2023-04-23T22:33:37.244Z,7.79
2023-04-23T22:36:42.306Z,7.78
2023-04-23T22:39:47.477Z,7.82
2023-04-23T22:42:54.433Z,7.84
2023-04-23T22:46:01.001Z,7.80
2023-04-23T22:49:07.837Z,7.79
2023-04-23T22:52:15.566Z,7.80
2023-04-23T22:55:22.152Z,7.75
2023-04-23T22:58:28.290Z,7.85
2023-04-23T23:01:33.408Z,7.88
2023-04-23T23:04:39.362Z,7.92
2023-04-23T23:07:45.576Z,8.05
2023-04-23T23:10:50.762Z,8.00
2023-04-23T23:13:55.865Z,7.98
2023-04-23T23:17:01.077Z,7.99
2023-04-23T23:20:06.538Z,7.95
2023-04-23T23:23:13.013Z,8.00
2023-04-23T23:26:19.626Z,8.03
2023-04-23T23:29:25.514Z,8.02
2023-04-23T23:32:25.359Z,7.94
2023-04-23T23:35:31.368Z,7.90
2023-04-23T23:38:29.627Z,7.88
2023-04-23T23:41:34.948Z,7.99
2023-04-23T23:44:40.942Z,7.97
2023-04-23T23:47:46.632Z,7.98
2023-04-23T23:50:52.846Z,8.02
2023-04-23T23:53:59.777Z,8.01
2023-04-23T23:57:06.622Z,8.02
